sensor_id;sensor_type;location;lat;lon;timestamp;P1;durP1;ratioP1;P2;durP2;ratioP2
25707;SDS011;13567;61.652;17.100;2022-08-18T00:01:44;2.65;;;0.40;;
25707;SDS011;13567;61.652;17.100;2022-08-18T00:04:14;0.77;;;0.60;;
25707;SDS011;13567;61.652;17.100;2022-08-18T00:07:02;1.25;;;0.50;;
25707;SDS011;13567;61.652;17.100;2022-08-18T00:09:29;3.13;;;0.63;;
25707;SDS011;13567;61.652;17.100;2022-08-18T00:11:59;3.65;;;0.80;;
25707;SDS011;13567;61.652;17.100;2022-08-18T00:14:30;3.45;;;0.50;;
25707;SDS011;13567;61.652;17.100;2022-08-18T00:16:59;1.95;;;0.50;;
25707;SDS011;13567;61.652;17.100;2022-08-18T00:19:26;1.88;;;0.80;;
25707;SDS011;13567;61.652;17.100;2022-08-18T00:22:13;3.22;;;0.98;;
25707;SDS011;13567;61.652;17.100;2022-08-18T00:25:01;3.30;;;0.65;;
25707;SDS011;13567;61.652;17.100;2022-08-18T00:27:29;0.40;;;0.40;;
25707;SDS011;13567;61.652;17.100;2022-08-18T00:29:58;1.77;;;0.70;;
25707;SDS011;13567;61.652;17.100;2022-08-18T00:32:31;1.50;;;0.52;;
25707;SDS011;13567;61.652;17.100;2022-08-18T00:35:16;2.17;;;0.40;;
25707;SDS011;13567;61.652;17.100;2022-08-18T00:37:55;2.35;;;0.47;;
25707;SDS011;13567;61.652;17.100;2022-08-18T00:40:25;2.55;;;0.50;;
25707;SDS011;13567;61.652;17.100;2022-08-18T00:43:05;1.75;;;0.60;;
25707;SDS011;13567;61.652;17.100;2022-08-18T00:45:34;1.65;;;0.65;;
25707;SDS011;13567;61.652;17.100;2022-08-18T00:48:05;3.03;;;0.50;;
25707;SDS011;13567;61.652;17.100;2022-08-18T00:53:23;1.88;;;0.55;;
25707;SDS011;13567;61.652;17.100;2022-08-18T00:56:19;3.05;;;0.70;;
25707;SDS011;13567;61.652;17.100;2022-08-18T00:58:51;2.78;;;0.52;;
25707;SDS011;13567;61.652;17.100;2022-08-18T01:01:23;0.63;;;0.47;;
25707;SDS011;13567;61.652;17.100;2022-08-18T01:03:56;1.23;;;0.47;;
25707;SDS011;13567;61.652;17.100;2022-08-18T01:06:33;2.63;;;0.73;;
25707;SDS011;13567;61.652;17.100;2022-08-18T01:09:12;3.63;;;1.10;;
25707;SDS011;13567;61.652;17.100;2022-08-18T01:11:39;7.82;;;1.20;;
25707;SDS011;13567;61.652;17.100;2022-08-18T01:14:07;3.85;;;1.20;;
25707;SDS011;13567;61.652;17.100;2022-08-18T01:16:35;4.07;;;1.13;;
25707;SDS011;13567;61.652;17.100;2022-08-18T01:19:23;9.15;;;1.48;;
25707;SDS011;13567;61.652;17.100;2022-08-18T01:22:12;5.70;;;1.38;;
25707;SDS011;13567;61.652;17.100;2022-08-18T01:24:42;5.20;;;1.10;;
25707;SDS011;13567;61.652;17.100;2022-08-18T01:27:28;3.10;;;0.90;;
25707;SDS011;13567;61.652;17.100;2022-08-18T01:30:01;1.63;;;0.70;;
25707;SDS011;13567;61.652;17.100;2022-08-18T01:32:36;5.85;;;0.77;;
25707;SDS011;13567;61.652;17.100;2022-08-18T01:35:05;1.08;;;0.60;;
25707;SDS011;13567;61.652;17.100;2022-08-18T01:37:34;2.70;;;0.77;;
25707;SDS011;13567;61.652;17.100;2022-08-18T01:40:04;0.85;;;0.50;;
25707;SDS011;13567;61.652;17.100;2022-08-18T01:42:54;2.92;;;0.60;;
25707;SDS011;13567;61.652;17.100;2022-08-18T01:45:21;1.70;;;0.52;;
25707;SDS011;13567;61.652;17.100;2022-08-18T01:47:48;3.65;;;0.82;;
25707;SDS011;13567;61.652;17.100;2022-08-18T01:50:16;1.92;;;0.70;;
25707;SDS011;13567;61.652;17.100;2022-08-18T01:52:43;4.47;;;0.90;;
25707;SDS011;13567;61.652;17.100;2022-08-18T01:55:12;1.77;;;0.60;;
25707;SDS011;13567;61.652;17.100;2022-08-18T01:57:40;3.42;;;0.73;;
25707;SDS011;13567;61.652;17.100;2022-08-18T02:00:11;2.35;;;0.63;;
25707;SDS011;13567;61.652;17.100;2022-08-18T02:02:41;3.17;;;0.70;;
25707;SDS011;13567;61.652;17.100;2022-08-18T02:05:09;3.55;;;0.88;;
25707;SDS011;13567;61.652;17.100;2022-08-18T02:07:40;2.60;;;0.77;;
25707;SDS011;13567;61.652;17.100;2022-08-18T02:10:19;3.13;;;0.88;;
25707;SDS011;13567;61.652;17.100;2022-08-18T02:12:46;1.38;;;0.63;;
25707;SDS011;13567;61.652;17.100;2022-08-18T02:15:13;3.70;;;0.75;;
25707;SDS011;13567;61.652;17.100;2022-08-18T02:17:41;1.33;;;0.63;;
25707;SDS011;13567;61.652;17.100;2022-08-18T02:20:13;2.30;;;0.70;;
25707;SDS011;13567;61.652;17.100;2022-08-18T02:22:42;1.20;;;0.70;;
25707;SDS011;13567;61.652;17.100;2022-08-18T02:25:11;2.03;;;0.75;;
25707;SDS011;13567;61.652;17.100;2022-08-18T02:27:39;2.60;;;0.80;;
25707;SDS011;13567;61.652;17.100;2022-08-18T02:30:09;3.53;;;0.75;;
25707;SDS011;13567;61.652;17.100;2022-08-18T02:32:39;2.25;;;0.88;;
25707;SDS011;13567;61.652;17.100;2022-08-18T02:35:06;2.13;;;0.80;;
25707;SDS011;13567;61.652;17.100;2022-08-18T02:37:38;3.13;;;0.90;;
25707;SDS011;13567;61.652;17.100;2022-08-18T02:40:08;2.63;;;1.05;;
25707;SDS011;13567;61.652;17.100;2022-08-18T02:42:41;2.28;;;1.15;;
25707;SDS011;13567;61.652;17.100;2022-08-18T02:45:09;3.72;;;0.82;;
25707;SDS011;13567;61.652;17.100;2022-08-18T02:47:38;3.13;;;0.98;;
25707;SDS011;13567;61.652;17.100;2022-08-18T02:50:05;2.17;;;0.70;;
25707;SDS011;13567;61.652;17.100;2022-08-18T02:52:36;7.93;;;1.10;;
25707;SDS011;13567;61.652;17.100;2022-08-18T02:55:05;2.20;;;1.10;;
25707;SDS011;13567;61.652;17.100;2022-08-18T02:57:33;1.42;;;0.75;;
25707;SDS011;13567;61.652;17.100;2022-08-18T03:00:00;4.00;;;0.82;;
25707;SDS011;13567;61.652;17.100;2022-08-18T03:02:28;2.88;;;0.73;;
25707;SDS011;13567;61.652;17.100;2022-08-18T03:04:54;1.95;;;0.73;;
25707;SDS011;13567;61.652;17.100;2022-08-18T03:07:22;3.17;;;0.90;;
25707;SDS011;13567;61.652;17.100;2022-08-18T03:09:50;2.83;;;0.85;;
25707;SDS011;13567;61.652;17.100;2022-08-18T03:12:17;2.63;;;0.90;;
25707;SDS011;13567;61.652;17.100;2022-08-18T03:14:44;3.28;;;0.90;;
25707;SDS011;13567;61.652;17.100;2022-08-18T03:17:12;1.77;;;0.80;;
25707;SDS011;13567;61.652;17.100;2022-08-18T03:19:40;2.78;;;0.90;;
25707;SDS011;13567;61.652;17.100;2022-08-18T03:22:13;1.95;;;0.80;;
25707;SDS011;13567;61.652;17.100;2022-08-18T03:24:55;4.10;;;1.00;;
25707;SDS011;13567;61.652;17.100;2022-08-18T03:27:22;2.72;;;1.00;;
25707;SDS011;13567;61.652;17.100;2022-08-18T03:29:50;3.50;;;1.00;;
25707;SDS011;13567;61.652;17.100;2022-08-18T03:32:17;2.65;;;1.10;;
25707;SDS011;13567;61.652;17.100;2022-08-18T03:34:44;5.53;;;0.90;;
25707;SDS011;13567;61.652;17.100;2022-08-18T03:37:11;3.17;;;1.17;;
25707;SDS011;13567;61.652;17.100;2022-08-18T03:39:39;2.35;;;1.00;;
25707;SDS011;13567;61.652;17.100;2022-08-18T03:42:06;1.85;;;1.00;;
25707;SDS011;13567;61.652;17.100;2022-08-18T03:44:33;3.28;;;1.05;;
25707;SDS011;13567;61.652;17.100;2022-08-18T03:47:08;3.13;;;1.20;;
25707;SDS011;13567;61.652;17.100;2022-08-18T03:49:36;4.68;;;0.98;;
25707;SDS011;13567;61.652;17.100;2022-08-18T03:52:06;5.47;;;1.40;;
25707;SDS011;13567;61.652;17.100;2022-08-18T03:54:34;5.20;;;1.08;;
25707;SDS011;13567;61.652;17.100;2022-08-18T03:57:06;3.80;;;1.20;;
25707;SDS011;13567;61.652;17.100;2022-08-18T03:59:34;3.15;;;1.00;;
25707;SDS011;13567;61.652;17.100;2022-08-18T04:02:02;4.90;;;1.35;;
25707;SDS011;13567;61.652;17.100;2022-08-18T04:04:30;4.72;;;1.00;;
25707;SDS011;13567;61.652;17.100;2022-08-18T04:07:00;3.22;;;1.20;;
25707;SDS011;13567;61.652;17.100;2022-08-18T04:09:31;5.03;;;1.13;;
25707;SDS011;13567;61.652;17.100;2022-08-18T04:12:06;2.45;;;1.10;;
25707;SDS011;13567;61.652;17.100;2022-08-18T04:14:43;4.43;;;1.15;;
25707;SDS011;13567;61.652;17.100;2022-08-18T04:17:13;3.20;;;1.00;;
25707;SDS011;13567;61.652;17.100;2022-08-18T04:19:50;4.07;;;1.23;;
25707;SDS011;13567;61.652;17.100;2022-08-18T04:22:18;3.65;;;1.20;;
25707;SDS011;13567;61.652;17.100;2022-08-18T04:24:45;5.20;;;1.40;;
25707;SDS011;13567;61.652;17.100;2022-08-18T04:27:15;7.45;;;1.60;;
25707;SDS011;13567;61.652;17.100;2022-08-18T04:29:42;4.70;;;1.42;;
25707;SDS011;13567;61.652;17.100;2022-08-18T04:32:09;4.95;;;1.30;;
25707;SDS011;13567;61.652;17.100;2022-08-18T04:34:36;4.15;;;1.10;;
25707;SDS011;13567;61.652;17.100;2022-08-18T04:37:03;4.40;;;1.30;;
25707;SDS011;13567;61.652;17.100;2022-08-18T04:39:30;5.95;;;1.30;;
25707;SDS011;13567;61.652;17.100;2022-08-18T04:41:57;7.05;;;1.52;;
25707;SDS011;13567;61.652;17.100;2022-08-18T04:44:25;3.95;;;1.13;;
25707;SDS011;13567;61.652;17.100;2022-08-18T04:46:52;4.65;;;1.25;;
25707;SDS011;13567;61.652;17.100;2022-08-18T04:49:21;4.85;;;1.42;;
25707;SDS011;13567;61.652;17.100;2022-08-18T04:51:51;4.18;;;1.25;;
25707;SDS011;13567;61.652;17.100;2022-08-18T04:54:58;4.70;;;1.50;;
25707;SDS011;13567;61.652;17.100;2022-08-18T04:57:27;5.25;;;1.50;;
25707;SDS011;13567;61.652;17.100;2022-08-18T04:59:59;3.55;;;1.27;;
25707;SDS011;13567;61.652;17.100;2022-08-18T05:02:26;5.10;;;1.42;;
25707;SDS011;13567;61.652;17.100;2022-08-18T05:04:53;4.30;;;1.38;;
25707;SDS011;13567;61.652;17.100;2022-08-18T05:07:20;6.20;;;1.52;;
25707;SDS011;13567;61.652;17.100;2022-08-18T05:09:48;5.90;;;1.33;;
25707;SDS011;13567;61.652;17.100;2022-08-18T05:12:15;5.25;;;1.58;;
25707;SDS011;13567;61.652;17.100;2022-08-18T05:14:43;4.88;;;1.40;;
25707;SDS011;13567;61.652;17.100;2022-08-18T05:17:11;6.85;;;1.20;;
25707;SDS011;13567;61.652;17.100;2022-08-18T05:19:39;3.55;;;1.00;;
25707;SDS011;13567;61.652;17.100;2022-08-18T05:22:10;6.35;;;1.40;;
25707;SDS011;13567;61.652;17.100;2022-08-18T05:24:43;5.38;;;1.42;;
25707;SDS011;13567;61.652;17.100;2022-08-18T05:27:12;5.93;;;1.40;;
25707;SDS011;13567;61.652;17.100;2022-08-18T05:29:39;10.73;;;1.70;;
25707;SDS011;13567;61.652;17.100;2022-08-18T05:32:12;3.45;;;1.15;;
25707;SDS011;13567;61.652;17.100;2022-08-18T05:35:07;6.20;;;1.33;;
25707;SDS011;13567;61.652;17.100;2022-08-18T05:40:24;3.83;;;1.25;;
25707;SDS011;13567;61.652;17.100;2022-08-18T05:42:51;4.68;;;1.35;;
25707;SDS011;13567;61.652;17.100;2022-08-18T05:45:22;5.20;;;1.15;;
25707;SDS011;13567;61.652;17.100;2022-08-18T05:47:50;6.95;;;1.52;;
25707;SDS011;13567;61.652;17.100;2022-08-18T05:50:25;8.68;;;2.17;;
25707;SDS011;13567;61.652;17.100;2022-08-18T05:55:33;4.70;;;1.60;;
25707;SDS011;13567;61.652;17.100;2022-08-18T06:01:06;2.83;;;1.23;;
25707;SDS011;13567;61.652;17.100;2022-08-18T06:04:00;8.63;;;1.30;;
25707;SDS011;13567;61.652;17.100;2022-08-18T06:06:34;6.68;;;1.40;;
25707;SDS011;13567;61.652;17.100;2022-08-18T06:11:52;6.65;;;1.50;;
25707;SDS011;13567;61.652;17.100;2022-08-18T06:14:23;4.82;;;1.42;;
25707;SDS011;13567;61.652;17.100;2022-08-18T06:16:57;4.07;;;1.20;;
25707;SDS011;13567;61.652;17.100;2022-08-18T06:22:29;4.80;;;1.35;;
25707;SDS011;13567;61.652;17.100;2022-08-18T06:25:36;6.10;;;1.50;;
25707;SDS011;13567;61.652;17.100;2022-08-18T06:28:16;3.97;;;1.30;;
25707;SDS011;13567;61.652;17.100;2022-08-18T06:30:46;6.75;;;1.30;;
25707;SDS011;13567;61.652;17.100;2022-08-18T06:36:16;5.13;;;1.40;;
25707;SDS011;13567;61.652;17.100;2022-08-18T06:41:22;7.85;;;1.60;;
25707;SDS011;13567;61.652;17.100;2022-08-18T06:44:32;6.07;;;1.70;;
25707;SDS011;13567;61.652;17.100;2022-08-18T06:50:09;5.15;;;1.30;;
25707;SDS011;13567;61.652;17.100;2022-08-18T06:52:53;5.50;;;1.13;;
25707;SDS011;13567;61.652;17.100;2022-08-18T06:55:33;4.35;;;1.50;;
25707;SDS011;13567;61.652;17.100;2022-08-18T06:58:03;4.18;;;1.70;;
25707;SDS011;13567;61.652;17.100;2022-08-18T07:00:54;7.95;;;1.73;;
25707;SDS011;13567;61.652;17.100;2022-08-18T07:06:30;5.22;;;1.20;;
25707;SDS011;13567;61.652;17.100;2022-08-18T07:12:04;5.25;;;1.50;;
25707;SDS011;13567;61.652;17.100;2022-08-18T07:14:47;6.97;;;1.52;;
25707;SDS011;13567;61.652;17.100;2022-08-18T07:17:23;6.18;;;1.40;;
25707;SDS011;13567;61.652;17.100;2022-08-18T07:22:52;3.20;;;1.17;;
25707;SDS011;13567;61.652;17.100;2022-08-18T07:25:25;7.25;;;1.90;;
25707;SDS011;13567;61.652;17.100;2022-08-18T07:28:04;4.05;;;1.40;;
25707;SDS011;13567;61.652;17.100;2022-08-18T07:30:33;6.78;;;1.48;;
25707;SDS011;13567;61.652;17.100;2022-08-18T07:35:46;4.80;;;1.30;;
25707;SDS011;13567;61.652;17.100;2022-08-18T07:46:47;5.93;;;1.95;;
25707;SDS011;13567;61.652;17.100;2022-08-18T07:49:27;4.32;;;1.30;;
25707;SDS011;13567;61.652;17.100;2022-08-18T07:52:10;4.78;;;1.40;;
25707;SDS011;13567;61.652;17.100;2022-08-18T07:55:26;5.18;;;1.55;;
25707;SDS011;13567;61.652;17.100;2022-08-18T08:06:27;6.30;;;1.60;;
25707;SDS011;13567;61.652;17.100;2022-08-18T08:12:03;5.70;;;1.30;;
25707;SDS011;13567;61.652;17.100;2022-08-18T08:14:49;7.13;;;1.60;;
25707;SDS011;13567;61.652;17.100;2022-08-18T08:17:27;5.80;;;1.40;;
25707;SDS011;13567;61.652;17.100;2022-08-18T08:23:12;3.55;;;1.25;;
25707;SDS011;13567;61.652;17.100;2022-08-18T08:34:40;6.28;;;1.35;;
25707;SDS011;13567;61.652;17.100;2022-08-18T08:37:25;5.07;;;1.40;;
25707;SDS011;13567;61.652;17.100;2022-08-18T08:40:12;5.57;;;1.40;;
25707;SDS011;13567;61.652;17.100;2022-08-18T08:42:46;8.60;;;1.90;;
25707;SDS011;13567;61.652;17.100;2022-08-18T08:45:22;6.80;;;1.40;;
25707;SDS011;13567;61.652;17.100;2022-08-18T08:50:40;6.78;;;1.33;;
25707;SDS011;13567;61.652;17.100;2022-08-18T08:53:16;5.63;;;1.40;;
25707;SDS011;13567;61.652;17.100;2022-08-18T08:55:52;10.23;;;1.65;;
25707;SDS011;13567;61.652;17.100;2022-08-18T09:01:22;7.55;;;1.70;;
25707;SDS011;13567;61.652;17.100;2022-08-18T09:09:43;3.72;;;1.30;;
25707;SDS011;13567;61.652;17.100;2022-08-18T09:12:43;6.13;;;1.50;;
25707;SDS011;13567;61.652;17.100;2022-08-18T09:23:41;6.63;;;1.25;;
25707;SDS011;13567;61.652;17.100;2022-08-18T09:26:25;5.30;;;1.40;;
25707;SDS011;13567;61.652;17.100;2022-08-18T09:28:54;5.80;;;1.50;;
25707;SDS011;13567;61.652;17.100;2022-08-18T09:31:24;4.70;;;1.38;;
25707;SDS011;13567;61.652;17.100;2022-08-18T09:34:10;4.68;;;1.27;;
25707;SDS011;13567;61.652;17.100;2022-08-18T09:36:46;5.22;;;1.45;;
25707;SDS011;13567;61.652;17.100;2022-08-18T09:39:41;2.60;;;0.98;;
25707;SDS011;13567;61.652;17.100;2022-08-18T09:42:49;7.88;;;1.75;;
25707;SDS011;13567;61.652;17.100;2022-08-18T09:45:51;3.83;;;1.20;;
25707;SDS011;13567;61.652;17.100;2022-08-18T09:48:30;3.70;;;1.17;;
25707;SDS011;13567;61.652;17.100;2022-08-18T09:56:14;4.13;;;1.30;;
25707;SDS011;13567;61.652;17.100;2022-08-18T09:58:57;4.10;;;1.27;;
25707;SDS011;13567;61.652;17.100;2022-08-18T10:01:37;4.97;;;1.60;;
25707;SDS011;13567;61.652;17.100;2022-08-18T10:04:23;3.75;;;1.15;;
25707;SDS011;13567;61.652;17.100;2022-08-18T10:07:12;3.90;;;1.02;;
25707;SDS011;13567;61.652;17.100;2022-08-18T10:09:45;2.95;;;1.02;;
25707;SDS011;13567;61.652;17.100;2022-08-18T10:13:06;4.45;;;1.20;;
25707;SDS011;13567;61.652;17.100;2022-08-18T10:18:50;6.30;;;1.42;;
25707;SDS011;13567;61.652;17.100;2022-08-18T10:21:27;5.82;;;1.38;;
25707;SDS011;13567;61.652;17.100;2022-08-18T10:24:19;6.65;;;1.88;;
25707;SDS011;13567;61.652;17.100;2022-08-18T10:27:33;3.17;;;1.40;;
25707;SDS011;13567;61.652;17.100;2022-08-18T10:31:11;8.73;;;1.65;;
25707;SDS011;13567;61.652;17.100;2022-08-18T10:36:40;5.90;;;1.23;;
25707;SDS011;13567;61.652;17.100;2022-08-18T10:39:23;3.55;;;1.45;;
25707;SDS011;13567;61.652;17.100;2022-08-18T10:53:58;4.80;;;1.42;;
25707;SDS011;13567;61.652;17.100;2022-08-18T10:56:45;4.60;;;1.25;;
25707;SDS011;13567;61.652;17.100;2022-08-18T10:59:31;6.13;;;1.27;;
25707;SDS011;13567;61.652;17.100;2022-08-18T11:05:28;5.95;;;1.35;;
25707;SDS011;13567;61.652;17.100;2022-08-18T11:07:59;10.45;;;1.60;;
25707;SDS011;13567;61.652;17.100;2022-08-18T11:10:50;7.80;;;1.60;;
25707;SDS011;13567;61.652;17.100;2022-08-18T11:13:47;3.80;;;1.30;;
25707;SDS011;13567;61.652;17.100;2022-08-18T11:19:49;4.20;;;1.30;;
25707;SDS011;13567;61.652;17.100;2022-08-18T11:24:58;7.72;;;1.55;;
25707;SDS011;13567;61.652;17.100;2022-08-18T11:27:30;4.55;;;1.50;;
25707;SDS011;13567;61.652;17.100;2022-08-18T11:30:03;4.32;;;1.45;;
25707;SDS011;13567;61.652;17.100;2022-08-18T11:32:32;3.75;;;1.15;;
25707;SDS011;13567;61.652;17.100;2022-08-18T11:38:00;5.50;;;1.40;;
25707;SDS011;13567;61.652;17.100;2022-08-18T11:40:37;4.43;;;1.25;;
25707;SDS011;13567;61.652;17.100;2022-08-18T11:43:30;5.03;;;1.38;;
25707;SDS011;13567;61.652;17.100;2022-08-18T11:46:40;6.68;;;1.45;;
25707;SDS011;13567;61.652;17.100;2022-08-18T11:49:29;6.32;;;1.65;;
25707;SDS011;13567;61.652;17.100;2022-08-18T11:52:00;6.45;;;1.77;;
25707;SDS011;13567;61.652;17.100;2022-08-18T11:54:46;7.07;;;1.58;;
25707;SDS011;13567;61.652;17.100;2022-08-18T11:57:47;6.28;;;1.63;;
25707;SDS011;13567;61.652;17.100;2022-08-18T12:00:36;6.18;;;1.60;;
25707;SDS011;13567;61.652;17.100;2022-08-18T12:05:58;6.70;;;2.20;;
25707;SDS011;13567;61.652;17.100;2022-08-18T12:11:26;10.43;;;1.95;;
25707;SDS011;13567;61.652;17.100;2022-08-18T12:14:09;9.57;;;1.98;;
25707;SDS011;13567;61.652;17.100;2022-08-18T12:16:59;7.00;;;2.17;;
25707;SDS011;13567;61.652;17.100;2022-08-18T12:19:27;7.13;;;1.90;;
25707;SDS011;13567;61.652;17.100;2022-08-18T12:21:59;7.85;;;1.63;;
25707;SDS011;13567;61.652;17.100;2022-08-18T12:24:37;5.72;;;1.55;;
25707;SDS011;13567;61.652;17.100;2022-08-18T12:27:05;8.45;;;1.88;;
25707;SDS011;13567;61.652;17.100;2022-08-18T12:29:47;6.60;;;1.80;;
25707;SDS011;13567;61.652;17.100;2022-08-18T12:32:15;7.45;;;1.75;;
25707;SDS011;13567;61.652;17.100;2022-08-18T12:35:03;6.82;;;1.85;;
25707;SDS011;13567;61.652;17.100;2022-08-18T12:37:52;5.03;;;1.67;;
25707;SDS011;13567;61.652;17.100;2022-08-18T12:40:28;6.15;;;1.63;;
25707;SDS011;13567;61.652;17.100;2022-08-18T12:42:55;5.75;;;1.65;;
25707;SDS011;13567;61.652;17.100;2022-08-18T12:45:23;5.22;;;1.52;;
25707;SDS011;13567;61.652;17.100;2022-08-18T12:47:52;5.60;;;1.60;;
25707;SDS011;13567;61.652;17.100;2022-08-18T12:50:19;5.90;;;1.60;;
25707;SDS011;13567;61.652;17.100;2022-08-18T12:52:58;7.03;;;1.67;;
25707;SDS011;13567;61.652;17.100;2022-08-18T12:55:27;5.68;;;1.60;;
25707;SDS011;13567;61.652;17.100;2022-08-18T12:57:57;9.60;;;2.13;;
25707;SDS011;13567;61.652;17.100;2022-08-18T13:00:24;7.53;;;2.15;;
25707;SDS011;13567;61.652;17.100;2022-08-18T13:02:54;6.80;;;1.88;;
25707;SDS011;13567;61.652;17.100;2022-08-18T13:05:23;8.50;;;2.20;;
25707;SDS011;13567;61.652;17.100;2022-08-18T13:07:59;9.20;;;1.83;;
25707;SDS011;13567;61.652;17.100;2022-08-18T13:10:29;10.30;;;1.83;;
25707;SDS011;13567;61.652;17.100;2022-08-18T13:13:12;5.70;;;1.52;;
25707;SDS011;13567;61.652;17.100;2022-08-18T13:15:40;7.68;;;2.00;;
25707;SDS011;13567;61.652;17.100;2022-08-18T13:18:26;6.90;;;1.73;;
25707;SDS011;13567;61.652;17.100;2022-08-18T13:20:55;5.85;;;1.40;;
25707;SDS011;13567;61.652;17.100;2022-08-18T13:23:23;5.03;;;1.48;;
25707;SDS011;13567;61.652;17.100;2022-08-18T13:25:53;5.22;;;1.50;;
25707;SDS011;13567;61.652;17.100;2022-08-18T13:28:28;6.07;;;1.30;;
25707;SDS011;13567;61.652;17.100;2022-08-18T13:31:00;4.82;;;1.85;;
25707;SDS011;13567;61.652;17.100;2022-08-18T13:33:32;4.50;;;1.50;;
25707;SDS011;13567;61.652;17.100;2022-08-18T13:36:19;8.88;;;1.65;;
25707;SDS011;13567;61.652;17.100;2022-08-18T13:38:48;7.90;;;1.77;;
25707;SDS011;13567;61.652;17.100;2022-08-18T13:41:20;4.95;;;1.75;;
25707;SDS011;13567;61.652;17.100;2022-08-18T13:43:50;4.78;;;1.40;;
25707;SDS011;13567;61.652;17.100;2022-08-18T13:46:17;4.53;;;1.42;;
25707;SDS011;13567;61.652;17.100;2022-08-18T13:48:56;6.95;;;1.83;;
25707;SDS011;13567;61.652;17.100;2022-08-18T13:51:28;7.75;;;1.50;;
25707;SDS011;13567;61.652;17.100;2022-08-18T13:53:56;6.72;;;1.50;;
25707;SDS011;13567;61.652;17.100;2022-08-18T13:56:43;5.97;;;1.80;;
25707;SDS011;13567;61.652;17.100;2022-08-18T13:59:18;6.50;;;1.73;;
25707;SDS011;13567;61.652;17.100;2022-08-18T14:01:48;6.75;;;1.73;;
25707;SDS011;13567;61.652;17.100;2022-08-18T14:04:18;7.97;;;1.83;;
25707;SDS011;13567;61.652;17.100;2022-08-18T14:06:52;4.40;;;1.50;;
25707;SDS011;13567;61.652;17.100;2022-08-18T14:09:23;7.70;;;1.60;;
25707;SDS011;13567;61.652;17.100;2022-08-18T14:12:08;6.68;;;1.85;;
25707;SDS011;13567;61.652;17.100;2022-08-18T14:14:50;8.15;;;1.90;;
25707;SDS011;13567;61.652;17.100;2022-08-18T14:17:19;6.88;;;2.00;;
25707;SDS011;13567;61.652;17.100;2022-08-18T14:19:49;5.45;;;1.60;;
25707;SDS011;13567;61.652;17.100;2022-08-18T14:22:48;7.70;;;1.75;;
25707;SDS011;13567;61.652;17.100;2022-08-18T14:25:47;8.15;;;1.65;;
25707;SDS011;13567;61.652;17.100;2022-08-18T14:28:46;7.38;;;1.70;;
25707;SDS011;13567;61.652;17.100;2022-08-18T14:31:17;6.90;;;1.67;;
25707;SDS011;13567;61.652;17.100;2022-08-18T14:33:48;7.38;;;1.88;;
25707;SDS011;13567;61.652;17.100;2022-08-18T14:36:19;8.05;;;1.77;;
25707;SDS011;13567;61.652;17.100;2022-08-18T14:38:56;5.63;;;1.65;;
25707;SDS011;13567;61.652;17.100;2022-08-18T14:41:24;8.15;;;1.70;;
25707;SDS011;13567;61.652;17.100;2022-08-18T14:43:52;6.43;;;1.77;;
25707;SDS011;13567;61.652;17.100;2022-08-18T14:46:39;5.68;;;1.30;;
25707;SDS011;13567;61.652;17.100;2022-08-18T14:49:06;4.32;;;1.30;;
25707;SDS011;13567;61.652;17.100;2022-08-18T14:51:33;7.78;;;1.70;;
25707;SDS011;13567;61.652;17.100;2022-08-18T14:54:01;7.45;;;1.98;;
25707;SDS011;13567;61.652;17.100;2022-08-18T14:56:28;4.03;;;1.60;;
25707;SDS011;13567;61.652;17.100;2022-08-18T14:59:04;6.85;;;1.83;;
25707;SDS011;13567;61.652;17.100;2022-08-18T15:01:34;5.95;;;1.50;;
25707;SDS011;13567;61.652;17.100;2022-08-18T15:04:08;6.35;;;1.38;;
25707;SDS011;13567;61.652;17.100;2022-08-18T15:06:44;8.20;;;1.80;;
25707;SDS011;13567;61.652;17.100;2022-08-18T15:09:22;5.78;;;1.67;;
25707;SDS011;13567;61.652;17.100;2022-08-18T15:11:55;6.43;;;1.70;;
25707;SDS011;13567;61.652;17.100;2022-08-18T15:14:28;6.45;;;1.60;;
25707;SDS011;13567;61.652;17.100;2022-08-18T15:17:02;4.35;;;1.70;;
25707;SDS011;13567;61.652;17.100;2022-08-18T15:19:40;4.65;;;1.42;;
25707;SDS011;13567;61.652;17.100;2022-08-18T15:22:26;7.32;;;1.90;;
25707;SDS011;13567;61.652;17.100;2022-08-18T15:25:13;9.65;;;1.80;;
25707;SDS011;13567;61.652;17.100;2022-08-18T15:27:59;4.78;;;1.55;;
25707;SDS011;13567;61.652;17.100;2022-08-18T15:30:27;9.98;;;1.80;;
25707;SDS011;13567;61.652;17.100;2022-08-18T15:32:54;6.82;;;1.70;;
25707;SDS011;13567;61.652;17.100;2022-08-18T15:35:28;6.80;;;2.10;;
25707;SDS011;13567;61.652;17.100;2022-08-18T15:37:56;2.80;;;1.27;;
25707;SDS011;13567;61.652;17.100;2022-08-18T15:40:24;5.80;;;1.70;;
25707;SDS011;13567;61.652;17.100;2022-08-18T15:43:00;4.95;;;1.50;;
25707;SDS011;13567;61.652;17.100;2022-08-18T15:45:36;4.07;;;1.40;;
25707;SDS011;13567;61.652;17.100;2022-08-18T15:48:22;4.45;;;1.60;;
25707;SDS011;13567;61.652;17.100;2022-08-18T15:50:50;6.65;;;1.83;;
25707;SDS011;13567;61.652;17.100;2022-08-18T15:53:22;5.70;;;1.45;;
25707;SDS011;13567;61.652;17.100;2022-08-18T15:55:55;5.93;;;1.70;;
25707;SDS011;13567;61.652;17.100;2022-08-18T15:58:22;3.13;;;1.35;;
25707;SDS011;13567;61.652;17.100;2022-08-18T16:00:54;6.57;;;1.88;;
25707;SDS011;13567;61.652;17.100;2022-08-18T16:03:24;6.50;;;1.40;;
25707;SDS011;13567;61.652;17.100;2022-08-18T16:05:53;10.00;;;1.75;;
25707;SDS011;13567;61.652;17.100;2022-08-18T16:08:21;5.05;;;1.70;;
25707;SDS011;13567;61.652;17.100;2022-08-18T16:10:50;6.45;;;1.85;;
25707;SDS011;13567;61.652;17.100;2022-08-18T16:13:18;5.03;;;1.73;;
25707;SDS011;13567;61.652;17.100;2022-08-18T16:15:46;7.05;;;2.55;;
25707;SDS011;13567;61.652;17.100;2022-08-18T16:18:17;6.35;;;1.70;;
25707;SDS011;13567;61.652;17.100;2022-08-18T16:20:46;5.15;;;1.80;;
25707;SDS011;13567;61.652;17.100;2022-08-18T16:23:17;6.40;;;2.00;;
25707;SDS011;13567;61.652;17.100;2022-08-18T16:25:45;6.40;;;1.98;;
25707;SDS011;13567;61.652;17.100;2022-08-18T16:28:12;9.32;;;2.95;;
25707;SDS011;13567;61.652;17.100;2022-08-18T16:30:39;9.70;;;2.35;;
25707;SDS011;13567;61.652;17.100;2022-08-18T16:33:06;6.53;;;1.83;;
25707;SDS011;13567;61.652;17.100;2022-08-18T16:35:34;7.07;;;2.20;;
25707;SDS011;13567;61.652;17.100;2022-08-18T16:38:03;8.98;;;2.63;;
25707;SDS011;13567;61.652;17.100;2022-08-18T16:40:32;5.18;;;2.03;;
25707;SDS011;13567;61.652;17.100;2022-08-18T16:43:00;7.95;;;2.22;;
25707;SDS011;13567;61.652;17.100;2022-08-18T16:45:27;6.32;;;2.15;;
25707;SDS011;13567;61.652;17.100;2022-08-18T16:47:54;10.10;;;2.70;;
25707;SDS011;13567;61.652;17.100;2022-08-18T16:50:21;7.00;;;2.60;;
25707;SDS011;13567;61.652;17.100;2022-08-18T16:52:50;7.20;;;2.20;;
25707;SDS011;13567;61.652;17.100;2022-08-18T16:55:17;6.18;;;2.25;;
25707;SDS011;13567;61.652;17.100;2022-08-18T16:57:45;8.25;;;2.10;;
25707;SDS011;13567;61.652;17.100;2022-08-18T17:00:31;8.48;;;2.65;;
25707;SDS011;13567;61.652;17.100;2022-08-18T17:03:23;9.25;;;2.40;;
25707;SDS011;13567;61.652;17.100;2022-08-18T17:06:10;5.57;;;1.95;;
25707;SDS011;13567;61.652;17.100;2022-08-18T17:08:41;7.22;;;2.28;;
25707;SDS011;13567;61.652;17.100;2022-08-18T17:11:13;6.25;;;2.35;;
25707;SDS011;13567;61.652;17.100;2022-08-18T17:13:45;9.27;;;2.38;;
25707;SDS011;13567;61.652;17.100;2022-08-18T17:16:15;5.15;;;1.85;;
25707;SDS011;13567;61.652;17.100;2022-08-18T17:18:43;7.00;;;2.20;;
25707;SDS011;13567;61.652;17.100;2022-08-18T17:21:13;7.30;;;1.95;;
25707;SDS011;13567;61.652;17.100;2022-08-18T17:23:43;6.18;;;2.13;;
25707;SDS011;13567;61.652;17.100;2022-08-18T17:26:14;8.10;;;2.25;;
25707;SDS011;13567;61.652;17.100;2022-08-18T17:29:18;6.55;;;2.13;;